Time;durP1;ratioP1;P1;durP2;ratioP2;P2;SDS_P1;SDS_P2;PMS_P1;PMS_P2;Temp;Humidity;BMP_temperature;BMP_pressure;BME280_temperature;BME280_humidity;BME280_pressure;Samples;Min_cycle;Max_cycle;Signal;HPM_P1;HPM_P2
2022/11/26 00:00:39;;;;;;;;;;;5.50;99.90;;;;;;5069175;28;19915;-58
2022/11/26 00:03:04;;;;;;;;;;;5.50;99.90;;;;;;5068151;28;20163;-59
2022/11/26 00:05:30;;;;;;;;;;;5.50;99.90;;;;;;5069268;28;19908;-59
2022/11/26 00:07:57;;;;;;;;;;;5.50;99.90;;;;;;5069002;28;19919;-58
2022/11/26 00:10:24;;;;;;;;;;;5.40;99.90;;;;;;5069115;28;19911;-60
2022/11/26 00:12:49;;;;;;;;;;;5.40;99.90;;;;;;5068321;28;19915;-58
2022/11/26 00:15:18;;;;;;;;;;;5.30;99.90;;;;;;5069306;28;19909;-59
2022/11/26 00:17:43;;;;;;;;;;;5.30;99.90;;;;;;5068707;28;19984;-59
2022/11/26 00:20:09;;;;;;;;;;;5.30;99.90;;;;;;5074394;28;19949;-60
2022/11/26 00:25:14;;;;;;;;;;;5.20;99.90;;;;;;5106685;22;19924;-57
2022/11/26 00:27:40;;;;;;;;;;;5.20;99.90;;;;;;5078839;28;19969;-58
2022/11/26 00:30:13;;;;;;;;;;;5.10;99.90;;;;;;5087317;28;19911;-58
2022/11/26 00:32:38;;;;;;;;;;;5.10;99.90;;;;;;5088527;28;19915;-56
2022/11/26 00:35:04;;;;;;;;;;;5.10;99.90;;;;;;5088323;28;19908;-57
2022/11/26 00:37:34;;;;;;;;;;;5.00;99.90;;;;;;5088775;28;20352;-59
2022/11/26 00:40:00;;;;;;;;;;;5.00;99.90;;;;;;5089009;28;20416;-59
2022/11/26 00:42:26;;;;;;;;;;;5.00;99.90;;;;;;5082180;28;20367;-58
2022/11/26 00:44:51;;;;;;;;;;;5.00;99.90;;;;;;5066584;28;19908;-59
2022/11/26 00:47:17;;;;;;;;;;;4.90;99.90;;;;;;5088524;28;19992;-57
2022/11/26 00:49:42;;;;;;;;;;;4.90;99.90;;;;;;5089044;28;19908;-59
2022/11/26 00:52:31;;;;;;;;;;;4.90;99.90;;;;;;5091788;28;19918;-56
2022/11/26 00:54:57;;;;;;;;;;;4.90;99.90;;;;;;5088582;28;20377;-58
2022/11/26 00:57:22;;;;;;;;;;;4.80;99.90;;;;;;5092685;28;19912;-59
2022/11/26 00:59:48;;;;;;;;;;;4.80;99.90;;;;;;5072354;28;19908;-57
2022/11/26 01:02:13;;;;;;;;;;;4.80;99.90;;;;;;5091716;28;20085;-58
2022/11/26 01:04:39;;;;;;;;;;;4.80;99.90;;;;;;5091646;28;19908;-60
2022/11/26 01:07:04;;;;;;;;;;;4.80;99.90;;;;;;5072793;28;19919;-60
2022/11/26 01:09:30;;;;;;;;;;;4.80;99.90;;;;;;5091675;28;20402;-60
2022/11/26 01:11:55;;;;;;;;;;;4.80;99.90;;;;;;5091836;28;20401;-58
2022/11/26 01:14:21;;;;;;;;;;;4.80;99.90;;;;;;5091701;28;19923;-56
2022/11/26 01:16:47;;;;;;;;;;;4.80;99.90;;;;;;5091791;28;19939;-58
2022/11/26 01:19:13;;;;;;;;;;;4.80;99.90;;;;;;5072986;28;20376;-60
2022/11/26 01:21:39;;;;;;;;;;;4.90;99.90;;;;;;5090378;28;19912;-59
2022/11/26 01:24:05;;;;;;;;;;;4.90;99.90;;;;;;5087452;28;19918;-60
2022/11/26 01:26:32;;;;;;;;;;;4.90;99.90;;;;;;5091901;28;19966;-59
2022/11/26 01:28:57;;;;;;;;;;;4.90;99.90;;;;;;5091571;28;19935;-60
2022/11/26 01:31:24;;;;;;;;;;;4.90;99.90;;;;;;5060632;28;19936;-59
2022/11/26 01:33:50;;;;;;;;;;;4.90;99.90;;;;;;5068902;28;20406;-58
2022/11/26 01:36:18;;;;;;;;;;;4.90;99.90;;;;;;5091827;28;19947;-58
2022/11/26 01:38:43;;;;;;;;;;;4.90;99.90;;;;;;5071525;28;19908;-58
2022/11/26 01:41:13;;;;;;;;;;;4.90;99.90;;;;;;5091561;28;20802;-59
2022/11/26 01:43:39;;;;;;;;;;;4.90;99.90;;;;;;5091424;28;19908;-59
2022/11/26 01:46:12;;;;;;;;;;;4.90;99.90;;;;;;5091492;28;19962;-58
2022/11/26 01:48:37;;;;;;;;;;;4.90;99.90;;;;;;5091193;28;20391;-59
2022/11/26 01:51:04;;;;;;;;;;;4.90;99.90;;;;;;5068306;28;19915;-60
2022/11/26 01:53:30;;;;;;;;;;;4.90;99.90;;;;;;5090636;28;19908;-60
2022/11/26 01:55:58;;;;;;;;;;;4.90;99.90;;;;;;5091684;28;19918;-58
2022/11/26 01:58:27;;;;;;;;;;;4.90;99.90;;;;;;5089409;28;20376;-59
2022/11/26 02:00:52;;;;;;;;;;;4.90;99.90;;;;;;5086413;28;19961;-59
2022/11/26 02:03:18;;;;;;;;;;;4.90;99.90;;;;;;5087401;28;20326;-59
2022/11/26 02:05:48;;;;;;;;;;;4.90;99.90;;;;;;5079322;28;19905;-58
2022/11/26 02:08:13;;;;;;;;;;;4.90;99.90;;;;;;5091053;28;19908;-59
2022/11/26 02:10:39;;;;;;;;;;;5.00;99.90;;;;;;5081617;28;19962;-59
2022/11/26 02:13:04;;;;;;;;;;;4.90;99.90;;;;;;5090290;28;19912;-59
2022/11/26 02:15:36;;;;;;;;;;;4.90;99.90;;;;;;5066132;28;20438;-58
2022/11/26 02:18:03;;;;;;;;;;;4.90;99.90;;;;;;5089972;28;20379;-57
2022/11/26 02:20:29;;;;;;;;;;;4.90;99.90;;;;;;5091045;28;19965;-59
2022/11/26 02:23:02;;;;;;;;;;;4.90;99.90;;;;;;5089983;28;19908;-58
2022/11/26 02:25:38;;;;;;;;;;;4.90;99.90;;;;;;5090859;28;19969;-58
2022/11/26 02:28:03;;;;;;;;;;;4.90;99.90;;;;;;5090347;28;19911;-59
2022/11/26 02:30:30;;;;;;;;;;;4.90;99.90;;;;;;5089580;28;19912;-60
2022/11/26 02:33:05;;;;;;;;;;;4.90;99.90;;;;;;5090273;28;19918;-59
2022/11/26 02:35:42;;;;;;;;;;;4.80;99.90;;;;;;5072618;28;20196;-60
2022/11/26 02:38:12;;;;;;;;;;;4.90;99.90;;;;;;5090065;28;20440;-59
2022/11/26 02:40:37;;;;;;;;;;;4.90;99.90;;;;;;5084317;28;20310;-58
2022/11/26 02:43:03;;;;;;;;;;;4.80;99.90;;;;;;5090189;28;19931;-59
2022/11/26 02:45:39;;;;;;;;;;;4.80;99.90;;;;;;5090725;28;19904;-60
2022/11/26 02:48:10;;;;;;;;;;;4.80;99.90;;;;;;5090690;28;19920;-58
2022/11/26 02:50:38;;;;;;;;;;;4.80;99.90;;;;;;5090502;28;19990;-58
2022/11/26 02:53:04;;;;;;;;;;;4.80;99.90;;;;;;5089984;28;19915;-60
2022/11/26 02:55:36;;;;;;;;;;;4.80;99.90;;;;;;5080749;28;19954;-58
2022/11/26 02:58:02;;;;;;;;;;;4.80;99.90;;;;;;5090379;28;20151;-59
2022/11/26 03:00:27;;;;;;;;;;;4.80;99.90;;;;;;5090173;28;19911;-60
2022/11/26 03:03:01;;;;;;;;;;;4.90;99.90;;;;;;5090056;28;20401;-58
2022/11/26 03:05:29;;;;;;;;;;;4.80;99.90;;;;;;5090506;28;19995;-57
2022/11/26 03:07:55;;;;;;;;;;;4.90;99.90;;;;;;5089827;28;20407;-57
2022/11/26 03:10:25;;;;;;;;;;;4.80;99.90;;;;;;5090877;28;19935;-59
2022/11/26 03:12:50;;;;;;;;;;;4.80;99.90;;;;;;5089330;28;19904;-58
2022/11/26 03:15:16;;;;;;;;;;;4.80;99.90;;;;;;5089881;28;20402;-58
2022/11/26 03:17:41;;;;;;;;;;;4.80;99.90;;;;;;5089967;28;19904;-59
2022/11/26 03:20:07;;;;;;;;;;;4.80;99.90;;;;;;5072437;28;19912;-58
2022/11/26 03:22:32;;;;;;;;;;;4.70;99.90;;;;;;5089558;28;19956;-58
2022/11/26 03:24:58;;;;;;;;;;;4.80;99.90;;;;;;5065815;28;19912;-55
2022/11/26 03:27:23;;;;;;;;;;;4.70;99.90;;;;;;5089727;28;19911;-59
2022/11/26 03:29:49;;;;;;;;;;;4.70;99.90;;;;;;5090230;28;19949;-60
2022/11/26 03:32:14;;;;;;;;;;;4.70;99.90;;;;;;5089111;28;19908;-58
2022/11/26 03:34:39;;;;;;;;;;;4.70;99.90;;;;;;5090233;28;19915;-59
2022/11/26 03:37:05;;;;;;;;;;;4.70;99.90;;;;;;5089392;28;19912;-57
2022/11/26 03:39:30;;;;;;;;;;;4.70;99.90;;;;;;5089599;28;20288;-59
2022/11/26 03:41:56;;;;;;;;;;;4.70;99.90;;;;;;5089400;28;20201;-59
2022/11/26 03:44:21;;;;;;;;;;;4.70;99.90;;;;;;5089388;28;20287;-58
2022/11/26 03:46:47;;;;;;;;;;;4.60;99.90;;;;;;5090155;28;19907;-58
2022/11/26 03:49:12;;;;;;;;;;;4.60;99.90;;;;;;5079068;28;19912;-58
2022/11/26 03:51:38;;;;;;;;;;;4.60;99.90;;;;;;5059302;28;19930;-59
2022/11/26 03:54:03;;;;;;;;;;;4.60;99.90;;;;;;5088055;28;19915;-58
2022/11/26 03:56:28;;;;;;;;;;;4.60;99.90;;;;;;5089527;28;19934;-59
2022/11/26 03:58:54;;;;;;;;;;;4.60;99.90;;;;;;5069433;28;19908;-59
2022/11/26 04:01:19;;;;;;;;;;;4.60;99.90;;;;;;5089130;28;20294;-60
2022/11/26 04:03:45;;;;;;;;;;;4.60;99.90;;;;;;5089771;28;19912;-59
2022/11/26 04:06:10;;;;;;;;;;;4.60;99.90;;;;;;5089076;28;20363;-59
2022/11/26 04:08:36;;;;;;;;;;;4.60;99.90;;;;;;5089570;28;19908;-59
2022/11/26 04:11:01;;;;;;;;;;;4.60;99.90;;;;;;5089197;28;19967;-57
2022/11/26 04:13:27;;;;;;;;;;;4.60;99.90;;;;;;5070865;28;19961;-59
2022/11/26 04:15:52;;;;;;;;;;;4.70;99.90;;;;;;5089299;28;19904;-60
2022/11/26 04:18:18;;;;;;;;;;;4.60;99.90;;;;;;5088851;28;19919;-58
2022/11/26 04:20:43;;;;;;;;;;;4.70;99.90;;;;;;5089471;28;19904;-58
2022/11/26 04:23:09;;;;;;;;;;;4.70;99.90;;;;;;5088161;28;19987;-57
2022/11/26 04:25:34;;;;;;;;;;;4.60;99.90;;;;;;5090198;28;20146;-59
2022/11/26 04:28:00;;;;;;;;;;;4.60;99.90;;;;;;5092683;28;19918;-59
2022/11/26 04:30:25;;;;;;;;;;;4.60;99.90;;;;;;5092585;28;19912;-60
2022/11/26 04:32:50;;;;;;;;;;;4.60;99.90;;;;;;5092038;28;20023;-60
2022/11/26 04:35:16;;;;;;;;;;;4.60;99.90;;;;;;5091746;28;19915;-59
2022/11/26 04:37:42;;;;;;;;;;;4.60;99.90;;;;;;5092540;28;19919;-59
2022/11/26 04:40:07;;;;;;;;;;;4.60;99.90;;;;;;5092532;28;19911;-58
2022/11/26 04:42:33;;;;;;;;;;;4.60;99.90;;;;;;5092619;28;20395;-59
2022/11/26 04:44:58;;;;;;;;;;;4.50;99.90;;;;;;5092545;28;19904;-59
2022/11/26 04:47:24;;;;;;;;;;;4.50;99.90;;;;;;5092625;28;20428;-59
2022/11/26 04:49:49;;;;;;;;;;;4.50;99.90;;;;;;5093111;28;19919;-59
2022/11/26 04:52:14;;;;;;;;;;;4.50;99.90;;;;;;5092324;28;19908;-60
2022/11/26 04:54:40;;;;;;;;;;;4.40;99.90;;;;;;5092302;28;19974;-58
2022/11/26 04:57:05;;;;;;;;;;;4.40;99.90;;;;;;5074055;28;20034;-58
2022/11/26 04:59:31;;;;;;;;;;;4.40;99.90;;;;;;5091766;28;19910;-59
2022/11/26 05:01:58;;;;;;;;;;;4.40;99.90;;;;;;5091750;28;19912;-59
2022/11/26 05:04:24;;;;;;;;;;;4.40;99.90;;;;;;5091873;28;20410;-59
2022/11/26 05:06:49;;;;;;;;;;;4.30;99.90;;;;;;5091811;28;19953;-60
2022/11/26 05:09:15;;;;;;;;;;;4.30;99.90;;;;;;5091991;28;19954;-59
2022/11/26 05:11:40;;;;;;;;;;;4.40;99.90;;;;;;5091674;28;20001;-59
2022/11/26 05:14:06;;;;;;;;;;;4.30;99.90;;;;;;5091839;28;19912;-59
2022/11/26 05:16:31;;;;;;;;;;;4.40;99.90;;;;;;5092037;28;19996;-57
2022/11/26 05:18:57;;;;;;;;;;;4.40;99.90;;;;;;5091665;28;19970;-58
2022/11/26 05:21:22;;;;;;;;;;;4.40;99.90;;;;;;5091292;28;19912;-56
2022/11/26 05:23:48;;;;;;;;;;;4.40;99.90;;;;;;5069251;28;19966;-57
2022/11/26 05:26:13;;;;;;;;;;;4.40;99.90;;;;;;5092127;28;19908;-56
2022/11/26 05:28:38;;;;;;;;;;;4.40;99.90;;;;;;5091627;28;19908;-60
2022/11/26 05:31:04;;;;;;;;;;;4.40;99.90;;;;;;5070245;28;19919;-59
2022/11/26 05:33:29;;;;;;;;;;;4.40;99.90;;;;;;5091631;28;20402;-57
2022/11/26 05:35:55;;;;;;;;;;;4.40;99.90;;;;;;5091674;28;20404;-58
2022/11/26 05:38:21;;;;;;;;;;;4.40;99.90;;;;;;5072222;28;19911;-56
2022/11/26 05:40:46;;;;;;;;;;;4.40;99.90;;;;;;5091878;28;19907;-58
2022/11/26 05:43:12;;;;;;;;;;;4.40;99.90;;;;;;5089975;28;19959;-55
2022/11/26 05:45:37;;;;;;;;;;;4.40;99.90;;;;;;5073543;28;19908;-58
2022/11/26 05:48:03;;;;;;;;;;;4.40;99.90;;;;;;5091756;28;20372;-57
2022/11/26 05:50:28;;;;;;;;;;;4.40;99.90;;;;;;5091540;28;19904;-55
2022/11/26 05:52:54;;;;;;;;;;;4.50;99.90;;;;;;5065322;28;20323;-59
2022/11/26 05:55:19;;;;;;;;;;;4.50;99.90;;;;;;5091974;28;19904;-59
2022/11/26 05:57:45;;;;;;;;;;;4.50;99.90;;;;;;5068412;28;20287;-59
2022/11/26 06:00:11;;;;;;;;;;;4.50;99.90;;;;;;5091669;28;20433;-59
2022/11/26 06:02:36;;;;;;;;;;;4.50;99.90;;;;;;5091201;28;19908;-59
2022/11/26 06:05:02;;;;;;;;;;;4.50;99.90;;;;;;5091257;28;20306;-58
2022/11/26 06:07:28;;;;;;;;;;;4.50;99.90;;;;;;5084093;28;19908;-59
2022/11/26 06:09:53;;;;;;;;;;;4.50;99.90;;;;;;5070227;28;19904;-59
2022/11/26 06:12:19;;;;;;;;;;;4.50;99.90;;;;;;5090643;28;19920;-58
2022/11/26 06:14:44;;;;;;;;;;;4.50;99.90;;;;;;5090898;28;19947;-59
2022/11/26 06:17:10;;;;;;;;;;;4.60;99.90;;;;;;5071818;28;19912;-59
2022/11/26 06:19:35;;;;;;;;;;;4.60;99.90;;;;;;5090607;28;20382;-59
2022/11/26 06:22:01;;;;;;;;;;;4.60;99.90;;;;;;5071869;28;20277;-58
2022/11/26 06:24:26;;;;;;;;;;;4.60;99.90;;;;;;5095809;22;19921;-57
2022/11/26 06:26:52;;;;;;;;;;;4.60;99.90;;;;;;5051024;28;19920;-60
2022/11/26 06:29:17;;;;;;;;;;;4.60;99.90;;;;;;5056439;28;19909;-57
2022/11/26 06:31:42;;;;;;;;;;;4.60;99.90;;;;;;5049622;28;20001;-58
2022/11/26 06:34:08;;;;;;;;;;;4.60;99.90;;;;;;5052978;28;19909;-60
2022/11/26 06:36:33;;;;;;;;;;;4.60;99.90;;;;;;5050666;28;19912;-57
2022/11/26 06:38:59;;;;;;;;;;;4.70;99.90;;;;;;5050512;28;19915;-59
2022/11/26 06:41:25;;;;;;;;;;;4.60;99.90;;;;;;5050353;28;20364;-57
2022/11/26 06:43:50;;;;;;;;;;;4.70;99.90;;;;;;5050072;28;19955;-58
2022/11/26 06:46:16;;;;;;;;;;;4.70;99.90;;;;;;5050391;28;19913;-58
2022/11/26 06:48:42;;;;;;;;;;;4.70;99.90;;;;;;5048994;28;19944;-58
2022/11/26 06:51:08;;;;;;;;;;;4.70;99.90;;;;;;5048349;28;19958;-58
2022/11/26 06:53:34;;;;;;;;;;;4.70;99.90;;;;;;5055791;28;19916;-57
2022/11/26 06:56:00;;;;;;;;;;;4.60;99.90;;;;;;5053890;28;19915;-59
2022/11/26 06:58:25;;;;;;;;;;;4.70;99.90;;;;;;5053059;28;19909;-57
2022/11/26 07:00:51;;;;;;;;;;;4.70;99.90;;;;;;5058181;28;19935;-58
2022/11/26 07:03:16;;;;;;;;;;;4.80;99.90;;;;;;5050006;28;19944;-57
2022/11/26 07:05:42;;;;;;;;;;;4.70;99.90;;;;;;5052144;28;20399;-58
2022/11/26 07:08:07;;;;;;;;;;;4.70;99.90;;;;;;5049976;28;19916;-58
2022/11/26 07:10:33;;;;;;;;;;;4.70;99.90;;;;;;5049820;28;20373;-60
2022/11/26 07:12:59;;;;;;;;;;;4.70;99.90;;;;;;5037903;28;20176;-59
2022/11/26 07:15:24;;;;;;;;;;;4.80;99.90;;;;;;5049910;28;19912;-58
2022/11/26 07:17:50;;;;;;;;;;;4.80;99.90;;;;;;5050024;28;20311;-60
2022/11/26 07:20:16;;;;;;;;;;;4.80;99.90;;;;;;5039943;28;19958;-60
2022/11/26 07:22:41;;;;;;;;;;;4.80;99.90;;;;;;5048407;28;20300;-59
2022/11/26 07:25:06;;;;;;;;;;;4.80;99.90;;;;;;5049475;28;19917;-59
2022/11/26 07:27:32;;;;;;;;;;;4.80;99.90;;;;;;5049700;28;20003;-60
2022/11/26 07:29:57;;;;;;;;;;;4.90;99.90;;;;;;5038027;28;19973;-59
2022/11/26 07:32:23;;;;;;;;;;;4.90;99.90;;;;;;5048953;28;20372;-59
2022/11/26 07:34:49;;;;;;;;;;;4.90;99.90;;;;;;5049670;28;19934;-59
2022/11/26 07:37:15;;;;;;;;;;;5.00;99.90;;;;;;5048897;28;19916;-60
2022/11/26 07:39:41;;;;;;;;;;;4.90;99.90;;;;;;5037075;28;20524;-59
2022/11/26 07:42:06;;;;;;;;;;;5.00;99.90;;;;;;5049185;28;20003;-60
2022/11/26 07:44:31;;;;;;;;;;;5.00;99.90;;;;;;5049474;28;20415;-58
2022/11/26 07:46:57;;;;;;;;;;;5.00;99.90;;;;;;5048980;28;19913;-57
2022/11/26 07:49:22;;;;;;;;;;;5.00;99.90;;;;;;5049070;28;20192;-60
2022/11/26 07:51:48;;;;;;;;;;;5.00;99.90;;;;;;5049189;28;19912;-58
2022/11/26 07:54:13;;;;;;;;;;;5.00;99.90;;;;;;5047954;28;19984;-57
2022/11/26 07:56:39;;;;;;;;;;;5.00;99.90;;;;;;5049225;28;19911;-60
2022/11/26 07:59:04;;;;;;;;;;;5.00;99.90;;;;;;5049443;28;19986;-59
2022/11/26 08:01:30;;;;;;;;;;;5.00;99.90;;;;;;5051888;28;19905;-59
2022/11/26 08:03:56;;;;;;;;;;;5.00;99.90;;;;;;5053772;28;20267;-58
2022/11/26 08:06:23;;;;;;;;;;;5.10;99.90;;;;;;5052452;28;19940;-59
2022/11/26 08:08:48;;;;;;;;;;;5.10;99.90;;;;;;5053391;28;19911;-58
2022/11/26 08:11:21;;;;;;;;;;;5.10;99.90;;;;;;5052998;28;19904;-60
2022/11/26 08:13:47;;;;;;;;;;;5.10;99.90;;;;;;5053543;28;19911;-58
2022/11/26 08:16:13;;;;;;;;;;;5.10;99.90;;;;;;5053042;28;19908;-59
2022/11/26 08:18:39;;;;;;;;;;;5.10;99.90;;;;;;5053062;28;19991;-57
2022/11/26 08:21:04;;;;;;;;;;;5.10;99.90;;;;;;5053097;28;20436;-55
2022/11/26 08:23:31;;;;;;;;;;;5.10;99.90;;;;;;5051690;28;19909;-56
2022/11/26 08:25:56;;;;;;;;;;;5.20;99.90;;;;;;5052670;28;19915;-58
2022/11/26 08:28:22;;;;;;;;;;;5.20;99.90;;;;;;5052401;28;19908;-59
2022/11/26 08:30:47;;;;;;;;;;;5.20;99.90;;;;;;5052337;28;19908;-59
2022/11/26 08:33:13;;;;;;;;;;;5.30;99.90;;;;;;5045794;28;19911;-57
2022/11/26 08:35:39;;;;;;;;;;;5.20;99.90;;;;;;5051932;28;19954;-58
2022/11/26 08:38:04;;;;;;;;;;;5.30;99.90;;;;;;5053117;28;20284;-59
2022/11/26 08:40:30;;;;;;;;;;;5.30;99.90;;;;;;5052371;28;19943;-59
2022/11/26 08:42:55;;;;;;;;;;;5.30;99.90;;;;;;5052404;28;19916;-56
2022/11/26 08:45:21;;;;;;;;;;;5.30;99.90;;;;;;5051729;28;19913;-57
2022/11/26 08:47:47;;;;;;;;;;;5.30;99.90;;;;;;5052247;28;19909;-58
2022/11/26 08:50:13;;;;;;;;;;;5.30;99.90;;;;;;5052576;28;20364;-58
2022/11/26 08:52:39;;;;;;;;;;;5.40;99.90;;;;;;5051813;28;19982;-59
2022/11/26 08:55:04;;;;;;;;;;;5.40;99.90;;;;;;5052299;28;20335;-58
2022/11/26 08:57:30;;;;;;;;;;;5.40;99.90;;;;;;5051463;28;19938;-57
2022/11/26 08:59:55;;;;;;;;;;;5.40;99.90;;;;;;5052558;28;19905;-60
2022/11/26 09:02:21;;;;;;;;;;;5.50;99.90;;;;;;5051692;28;20027;-60
2022/11/26 09:04:47;;;;;;;;;;;5.50;99.90;;;;;;5052354;28;20284;-57
2022/11/26 09:07:12;;;;;;;;;;;5.50;99.90;;;;;;5051670;28;19959;-58
2022/11/26 09:09:38;;;;;;;;;;;5.50;99.90;;;;;;5052061;28;19931;-60
2022/11/26 09:12:03;;;;;;;;;;;5.60;99.90;;;;;;5051261;28;19912;-58
2022/11/26 09:14:33;;;;;;;;;;;5.60;99.90;;;;;;5051922;28;19911;-59
2022/11/26 09:16:58;;;;;;;;;;;5.60;99.90;;;;;;5051960;28;19909;-59
2022/11/26 09:19:24;;;;;;;;;;;5.60;99.90;;;;;;5052016;28;20280;-57
2022/11/26 09:21:50;;;;;;;;;;;5.70;99.90;;;;;;5051289;28;19909;-58
2022/11/26 09:24:16;;;;;;;;;;;5.70;99.90;;;;;;5051961;28;19983;-58
2022/11/26 09:26:41;;;;;;;;;;;5.70;99.90;;;;;;5051663;28;19912;-59
2022/11/26 09:29:08;;;;;;;;;;;5.70;99.90;;;;;;5051852;28;19913;-59
2022/11/26 09:31:34;;;;;;;;;;;5.80;99.90;;;;;;5051588;28;20011;-59
2022/11/26 09:34:00;;;;;;;;;;;5.80;99.90;;;;;;5050914;28;20004;-57
2022/11/26 09:36:26;;;;;;;;;;;5.80;99.90;;;;;;5051745;28;19911;-59
2022/11/26 09:38:52;;;;;;;;;;;5.80;99.90;;;;;;5051610;28;19905;-57
2022/11/26 09:41:35;;;;;;;;;;;5.80;99.90;;;;;;5051335;28;19965;-60
2022/11/26 09:44:08;;;;;;;;;;;5.90;99.90;;;;;;5050756;28;20079;-59
2022/11/26 09:46:48;;;;;;;;;;;5.90;99.90;;;;;;5050484;28;19909;-59
2022/11/26 09:49:14;;;;;;;;;;;5.90;99.90;;;;;;5051645;28;20355;-59
2022/11/26 09:51:41;;;;;;;;;;;5.90;99.90;;;;;;5051245;28;19944;-57
2022/11/26 09:54:09;;;;;;;;;;;5.90;99.90;;;;;;5051122;28;20414;-58
2022/11/26 09:56:35;;;;;;;;;;;5.90;99.90;;;;;;5051467;28;20166;-59
2022/11/26 09:59:05;;;;;;;;;;;5.90;99.90;;;;;;5050901;28;19908;-59
2022/11/26 10:01:31;;;;;;;;;;;5.90;99.90;;;;;;5049997;28;19912;-60
2022/11/26 10:03:57;;;;;;;;;;;5.90;99.90;;;;;;5051147;28;19995;-58
2022/11/26 10:06:35;;;;;;;;;;;6.00;99.90;;;;;;5051675;28;20210;-59
2022/11/26 10:09:01;;;;;;;;;;;6.00;99.90;;;;;;5051219;28;19912;-59
2022/11/26 10:11:46;;;;;;;;;;;6.00;99.90;;;;;;5051079;28;19905;-58
2022/11/26 10:14:31;;;;;;;;;;;6.00;99.90;;;;;;5051195;28;19974;-58
2022/11/26 10:17:08;;;;;;;;;;;6.10;99.90;;;;;;5048061;28;19909;-59
2022/11/26 10:19:34;;;;;;;;;;;6.10;99.90;;;;;;5051019;28;19958;-59
2022/11/26 10:22:02;;;;;;;;;;;6.10;99.90;;;;;;5050471;28;19913;-59
2022/11/26 10:24:30;;;;;;;;;;;6.10;99.90;;;;;;5050106;28;19938;-59
2022/11/26 10:26:58;;;;;;;;;;;6.10;99.90;;;;;;5050415;28;19924;-58
2022/11/26 10:29:25;;;;;;;;;;;6.10;99.90;;;;;;5050811;28;19920;-58
2022/11/26 10:31:57;;;;;;;;;;;6.20;99.90;;;;;;5050161;28;19995;-58
2022/11/26 10:34:29;;;;;;;;;;;6.20;99.90;;;;;;5043516;28;19913;-58
2022/11/26 10:36:55;;;;;;;;;;;6.20;99.90;;;;;;5050572;28;19908;-57
2022/11/26 10:39:20;;;;;;;;;;;6.30;99.90;;;;;;5050333;28;20046;-58
2022/11/26 10:41:46;;;;;;;;;;;6.40;99.90;;;;;;5049859;28;19992;-59
2022/11/26 10:44:30;;;;;;;;;;;6.40;99.90;;;;;;5049215;28;20011;-58
2022/11/26 10:46:56;;;;;;;;;;;6.40;99.90;;;;;;5039275;28;19912;-58
2022/11/26 10:49:26;;;;;;;;;;;6.50;99.90;;;;;;5050340;28;19913;-59
2022/11/26 10:51:53;;;;;;;;;;;6.50;99.90;;;;;;5050140;28;19943;-58
2022/11/26 10:54:22;;;;;;;;;;;6.50;99.90;;;;;;5049603;28;20349;-58
2022/11/26 10:56:52;;;;;;;;;;;6.50;99.90;;;;;;5049792;28;19999;-59
2022/11/26 10:59:50;;;;;;;;;;;6.50;99.90;;;;;;5050049;28;19917;-59
2022/11/26 11:02:18;;;;;;;;;;;6.50;99.90;;;;;;5003872;28;19908;-59
2022/11/26 11:04:44;;;;;;;;;;;6.50;99.90;;;;;;5050115;28;20391;-57
2022/11/26 11:07:40;;;;;;;;;;;6.50;99.90;;;;;;5049865;28;19917;-57
2022/11/26 11:10:05;;;;;;;;;;;6.60;99.90;;;;;;5037077;28;19916;-56
2022/11/26 11:12:31;;;;;;;;;;;6.60;99.90;;;;;;5049837;28;20552;-59
2022/11/26 11:15:11;;;;;;;;;;;6.60;99.90;;;;;;5040251;28;19919;-58
2022/11/26 11:17:38;;;;;;;;;;;6.60;99.90;;;;;;5049782;28;19904;-59
2022/11/26 11:20:16;;;;;;;;;;;6.60;99.90;;;;;;5048640;28;20436;-57
2022/11/26 11:22:45;;;;;;;;;;;6.50;99.90;;;;;;5049412;28;19942;-58
2022/11/26 11:25:21;;;;;;;;;;;6.60;99.90;;;;;;5048910;28;19916;-59
2022/11/26 11:27:47;;;;;;;;;;;6.60;99.90;;;;;;5048814;28;19962;-58
2022/11/26 11:30:36;;;;;;;;;;;6.60;99.90;;;;;;5049589;28;19974;-57
2022/11/26 11:33:09;;;;;;;;;;;6.60;99.90;;;;;;5027313;28;19956;-56
2022/11/26 11:35:35;;;;;;;;;;;6.60;99.90;;;;;;5044207;28;19904;-57
2022/11/26 11:38:00;;;;;;;;;;;6.60;99.90;;;;;;5049402;28;20008;-56
2022/11/26 11:40:29;;;;;;;;;;;6.60;99.90;;;;;;5049406;28;19905;-58
2022/11/26 11:42:59;;;;;;;;;;;6.70;99.90;;;;;;5049211;28;19962;-57
2022/11/26 11:45:32;;;;;;;;;;;6.70;99.90;;;;;;5049696;28;19936;-57
2022/11/26 11:48:06;;;;;;;;;;;6.70;99.90;;;;;;5049300;28;20094;-59
2022/11/26 11:50:32;;;;;;;;;;;6.70;99.90;;;;;;5049691;28;19905;-58
2022/11/26 11:53:13;;;;;;;;;;;6.60;99.90;;;;;;5048613;28;19909;-60
2022/11/26 11:55:41;;;;;;;;;;;6.70;99.90;;;;;;5049009;28;20356;-58
2022/11/26 11:58:18;;;;;;;;;;;6.70;99.90;;;;;;5048693;28;20360;-60
2022/11/26 12:00:52;;;;;;;;;;;6.70;99.90;;;;;;5048307;28;19904;-59
2022/11/26 12:03:27;;;;;;;;;;;6.70;99.90;;;;;;5049429;28;19916;-59
2022/11/26 12:05:59;;;;;;;;;;;6.70;99.90;;;;;;5049433;28;19962;-59
2022/11/26 12:08:27;;;;;;;;;;;6.70;99.90;;;;;;5048620;28;19916;-61
2022/11/26 12:10:55;;;;;;;;;;;6.70;99.90;;;;;;5049018;28;19913;-59
2022/11/26 12:13:22;;;;;;;;;;;6.80;99.90;;;;;;5049109;28;19916;-59
2022/11/26 12:15:52;;;;;;;;;;;6.70;99.90;;;;;;5048310;28;19916;-59
2022/11/26 12:18:25;;;;;;;;;;;6.70;99.90;;;;;;5048419;28;19915;-59
2022/11/26 12:20:55;;;;;;;;;;;6.60;99.90;;;;;;5049467;28;19904;-59
2022/11/26 12:23:26;;;;;;;;;;;6.70;99.90;;;;;;5048851;28;19908;-59
2022/11/26 12:25:55;;;;;;;;;;;6.70;99.90;;;;;;5049184;28;20006;-56
2022/11/26 12:28:29;;;;;;;;;;;6.70;99.90;;;;;;5102232;22;19920;-67
2022/11/26 12:31:03;;;;;;;;;;;6.70;99.90;;;;;;5088515;28;20255;-66
2022/11/26 12:34:00;;;;;;;;;;;6.70;99.90;;;;;;5088859;28;19938;-66
2022/11/26 12:36:35;;;;;;;;;;;6.80;99.90;;;;;;5029487;28;19908;-67
2022/11/26 12:39:03;;;;;;;;;;;6.80;99.90;;;;;;5068410;28;19939;-67
2022/11/26 12:41:32;;;;;;;;;;;6.80;99.90;;;;;;5068770;28;19912;-67
2022/11/26 12:44:16;;;;;;;;;;;6.70;99.90;;;;;;5067431;28;19912;-66
2022/11/26 12:46:46;;;;;;;;;;;6.80;99.90;;;;;;5069970;28;19912;-67
2022/11/26 12:49:19;;;;;;;;;;;6.70;99.90;;;;;;5071906;28;19953;-68
2022/11/26 12:51:48;;;;;;;;;;;6.80;99.90;;;;;;5072447;28;19957;-66
2022/11/26 12:54:37;;;;;;;;;;;6.70;99.90;;;;;;5072123;28;19909;-68
2022/11/26 12:57:09;;;;;;;;;;;6.80;99.90;;;;;;5054328;28;19904;-65
2022/11/26 12:59:37;;;;;;;;;;;6.80;99.90;;;;;;5072296;28;19915;-67
2022/11/26 13:02:18;;;;;;;;;;;6.70;99.90;;;;;;5072480;28;19987;-66
2022/11/26 13:04:44;;;;;;;;;;;6.80;99.90;;;;;;5072302;28;20507;-66
2022/11/26 13:07:21;;;;;;;;;;;6.80;99.90;;;;;;5072132;28;19962;-66
2022/11/26 13:09:49;;;;;;;;;;;6.70;99.90;;;;;;5070646;28;19939;-67
2022/11/26 13:12:38;;;;;;;;;;;6.80;99.90;;;;;;5063488;28;19908;-67
2022/11/26 13:15:12;;;;;;;;;;;6.70;99.90;;;;;;5050124;28;20295;-67
2022/11/26 13:17:42;;;;;;;;;;;6.70;99.90;;;;;;5071983;28;19913;-67
2022/11/26 13:20:40;;;;;;;;;;;6.70;99.90;;;;;;5069841;28;19963;-67
2022/11/26 13:23:24;;;;;;;;;;;6.70;99.90;;;;;;5038750;28;19916;-67
2022/11/26 13:26:06;;;;;;;;;;;6.70;99.90;;;;;;5071335;28;19920;-70
2022/11/26 13:28:51;;;;;;;;;;;6.70;99.90;;;;;;5071409;28;19977;-67
2022/11/26 13:31:16;;;;;;;;;;;6.70;99.90;;;;;;5066078;28;19908;-68
2022/11/26 13:33:56;;;;;;;;;;;6.70;99.90;;;;;;5071580;28;19954;-67
2022/11/26 13:36:25;;;;;;;;;;;6.70;99.90;;;;;;5065534;28;19916;-68
2022/11/26 13:39:09;;;;;;;;;;;6.60;99.90;;;;;;5071683;28;19937;-68
2022/11/26 13:41:53;;;;;;;;;;;6.70;99.90;;;;;;5071239;28;19908;-67
2022/11/26 13:44:45;;;;;;;;;;;6.60;99.90;;;;;;5063995;28;19912;-67
2022/11/26 13:47:29;;;;;;;;;;;6.70;99.90;;;;;;5046796;28;20046;-66
2022/11/26 13:50:18;;;;;;;;;;;6.70;99.90;;;;;;5071204;28;19914;-68
2022/11/26 13:52:53;;;;;;;;;;;6.70;99.90;;;;;;5062263;28;19934;-68
2022/11/26 13:55:27;;;;;;;;;;;6.80;99.90;;;;;;5064018;28;19912;-66
2022/11/26 13:57:57;;;;;;;;;;;6.80;99.90;;;;;;5060845;28;19905;-68
2022/11/26 14:00:30;;;;;;;;;;;6.80;99.90;;;;;;5070661;28;19912;-68
2022/11/26 14:02:56;;;;;;;;;;;6.70;99.90;;;;;;5071345;28;19987;-66
2022/11/26 14:05:22;;;;;;;;;;;6.80;99.90;;;;;;5070665;28;20165;-66
2022/11/26 14:07:48;;;;;;;;;;;6.70;99.90;;;;;;5071055;28;19939;-67
2022/11/26 14:10:32;;;;;;;;;;;6.70;99.90;;;;;;5071370;28;20376;-66
2022/11/26 14:13:03;;;;;;;;;;;6.70;99.90;;;;;;5071079;28;19954;-64
2022/11/26 14:15:41;;;;;;;;;;;6.70;99.90;;;;;;5071124;28;20403;-64
2022/11/26 14:18:06;;;;;;;;;;;6.70;99.90;;;;;;5047507;28;19954;-63
2022/11/26 14:20:52;;;;;;;;;;;6.70;99.90;;;;;;5070805;28;19944;-63
2022/11/26 14:23:36;;;;;;;;;;;6.70;99.90;;;;;;5069542;28;19927;-63
2022/11/26 14:26:02;;;;;;;;;;;6.70;99.90;;;;;;5070647;28;20287;-63
2022/11/26 14:28:27;;;;;;;;;;;6.70;99.90;;;;;;5070720;28;20007;-64
2022/11/26 14:30:52;;;;;;;;;;;6.80;99.90;;;;;;5070694;28;19943;-64
2022/11/26 14:33:23;;;;;;;;;;;6.80;99.90;;;;;;5070554;28;20437;-64
2022/11/26 14:35:55;;;;;;;;;;;6.70;99.90;;;;;;5070027;28;20395;-64
2022/11/26 14:38:25;;;;;;;;;;;6.70;99.90;;;;;;5050931;28;19912;-63
2022/11/26 14:40:58;;;;;;;;;;;6.70;99.90;;;;;;5047595;28;19904;-63